sensor_id;sensor_type;location;lat;lon;timestamp;P1;durP1;ratioP1;P2;durP2;ratioP2
29362;SDS011;16349;53.672;10.014;2024-01-07T00:02:18;1.90;;;1.30;;
29362;SDS011;16349;53.672;10.014;2024-01-07T00:04:46;3.47;;;1.00;;
29362;SDS011;16349;53.672;10.014;2024-01-07T00:07:13;2.07;;;1.53;;
29362;SDS011;16349;53.672;10.014;2024-01-07T00:09:40;1.97;;;0.90;;
29362;SDS011;16349;53.672;10.014;2024-01-07T00:12:07;1.40;;;1.17;;
29362;SDS011;16349;53.672;10.014;2024-01-07T00:14:34;2.57;;;1.37;;
29362;SDS011;16349;53.672;10.014;2024-01-07T00:17:01;2.23;;;1.30;;
29362;SDS011;16349;53.672;10.014;2024-01-07T00:19:27;2.23;;;1.37;;
29362;SDS011;16349;53.672;10.014;2024-01-07T00:21:57;2.23;;;1.43;;
29362;SDS011;16349;53.672;10.014;2024-01-07T00:24:24;1.30;;;1.20;;
29362;SDS011;16349;53.672;10.014;2024-01-07T00:26:54;2.80;;;1.20;;
29362;SDS011;16349;53.672;10.014;2024-01-07T00:29:21;1.60;;;1.20;;
29362;SDS011;16349;53.672;10.014;2024-01-07T00:31:47;1.77;;;1.43;;
29362;SDS011;16349;53.672;10.014;2024-01-07T00:34:14;2.70;;;1.30;;
29362;SDS011;16349;53.672;10.014;2024-01-07T00:36:41;1.43;;;1.20;;
29362;SDS011;16349;53.672;10.014;2024-01-07T00:39:09;3.90;;;1.40;;
29362;SDS011;16349;53.672;10.014;2024-01-07T00:41:36;3.30;;;1.30;;
29362;SDS011;16349;53.672;10.014;2024-01-07T00:44:03;2.10;;;1.37;;
29362;SDS011;16349;53.672;10.014;2024-01-07T00:46:30;1.57;;;1.40;;
29362;SDS011;16349;53.672;10.014;2024-01-07T00:48:57;1.73;;;1.23;;
29362;SDS011;16349;53.672;10.014;2024-01-07T00:51:24;2.27;;;1.47;;
29362;SDS011;16349;53.672;10.014;2024-01-07T00:53:51;1.23;;;0.93;;
29362;SDS011;16349;53.672;10.014;2024-01-07T00:56:19;1.50;;;1.40;;
29362;SDS011;16349;53.672;10.014;2024-01-07T00:58:46;2.50;;;1.03;;
29362;SDS011;16349;53.672;10.014;2024-01-07T01:01:12;2.10;;;1.07;;
29362;SDS011;16349;53.672;10.014;2024-01-07T01:03:40;3.17;;;1.03;;
29362;SDS011;16349;53.672;10.014;2024-01-07T01:06:07;2.53;;;1.30;;
29362;SDS011;16349;53.672;10.014;2024-01-07T01:08:33;2.07;;;0.93;;
29362;SDS011;16349;53.672;10.014;2024-01-07T01:11:01;3.17;;;1.33;;
29362;SDS011;16349;53.672;10.014;2024-01-07T01:13:29;2.23;;;1.07;;
29362;SDS011;16349;53.672;10.014;2024-01-07T01:15:56;1.50;;;0.97;;
29362;SDS011;16349;53.672;10.014;2024-01-07T01:18:22;1.80;;;1.30;;
29362;SDS011;16349;53.672;10.014;2024-01-07T01:20:50;1.47;;;1.10;;
29362;SDS011;16349;53.672;10.014;2024-01-07T01:23:17;1.93;;;1.30;;
29362;SDS011;16349;53.672;10.014;2024-01-07T01:25:44;3.70;;;1.37;;
29362;SDS011;16349;53.672;10.014;2024-01-07T01:28:11;2.30;;;1.00;;
29362;SDS011;16349;53.672;10.014;2024-01-07T01:30:39;3.33;;;1.03;;
29362;SDS011;16349;53.672;10.014;2024-01-07T01:33:06;2.60;;;1.30;;
29362;SDS011;16349;53.672;10.014;2024-01-07T01:35:33;2.03;;;1.00;;
29362;SDS011;16349;53.672;10.014;2024-01-07T01:37:59;4.17;;;1.83;;
29362;SDS011;16349;53.672;10.014;2024-01-07T01:40:27;3.27;;;1.20;;
29362;SDS011;16349;53.672;10.014;2024-01-07T01:42:53;2.37;;;1.43;;
29362;SDS011;16349;53.672;10.014;2024-01-07T01:45:20;1.97;;;1.10;;
29362;SDS011;16349;53.672;10.014;2024-01-07T01:47:48;1.40;;;1.07;;
29362;SDS011;16349;53.672;10.014;2024-01-07T01:50:16;2.77;;;1.10;;
29362;SDS011;16349;53.672;10.014;2024-01-07T01:52:44;3.13;;;1.10;;
29362;SDS011;16349;53.672;10.014;2024-01-07T01:55:11;1.83;;;1.33;;
29362;SDS011;16349;53.672;10.014;2024-01-07T01:57:38;5.03;;;1.33;;
29362;SDS011;16349;53.672;10.014;2024-01-07T02:00:07;3.40;;;1.10;;
29362;SDS011;16349;53.672;10.014;2024-01-07T02:02:34;1.90;;;1.10;;
29362;SDS011;16349;53.672;10.014;2024-01-07T02:05:02;1.20;;;1.10;;
29362;SDS011;16349;53.672;10.014;2024-01-07T02:07:30;4.50;;;1.10;;
29362;SDS011;16349;53.672;10.014;2024-01-07T02:09:57;1.97;;;1.03;;
29362;SDS011;16349;53.672;10.014;2024-01-07T02:12:26;1.67;;;1.20;;
29362;SDS011;16349;53.672;10.014;2024-01-07T02:14:52;2.60;;;1.20;;
29362;SDS011;16349;53.672;10.014;2024-01-07T02:17:19;2.90;;;1.40;;
29362;SDS011;16349;53.672;10.014;2024-01-07T02:19:47;1.00;;;0.90;;
29362;SDS011;16349;53.672;10.014;2024-01-07T02:22:15;1.80;;;1.10;;
29362;SDS011;16349;53.672;10.014;2024-01-07T02:24:43;2.13;;;1.20;;
29362;SDS011;16349;53.672;10.014;2024-01-07T02:27:10;2.17;;;1.00;;
29362;SDS011;16349;53.672;10.014;2024-01-07T02:29:37;2.97;;;1.10;;
29362;SDS011;16349;53.672;10.014;2024-01-07T02:32:04;2.77;;;0.97;;
29362;SDS011;16349;53.672;10.014;2024-01-07T02:34:31;1.60;;;1.20;;
29362;SDS011;16349;53.672;10.014;2024-01-07T02:36:58;1.37;;;1.20;;
29362;SDS011;16349;53.672;10.014;2024-01-07T02:39:25;1.13;;;1.03;;
29362;SDS011;16349;53.672;10.014;2024-01-07T02:41:53;1.13;;;0.70;;
29362;SDS011;16349;53.672;10.014;2024-01-07T02:44:20;3.47;;;1.10;;
29362;SDS011;16349;53.672;10.014;2024-01-07T02:46:47;1.10;;;1.00;;
29362;SDS011;16349;53.672;10.014;2024-01-07T02:49:14;3.47;;;0.80;;
29362;SDS011;16349;53.672;10.014;2024-01-07T02:51:40;1.00;;;0.90;;
29362;SDS011;16349;53.672;10.014;2024-01-07T02:54:07;1.17;;;1.17;;
29362;SDS011;16349;53.672;10.014;2024-01-07T02:56:34;2.63;;;0.90;;
29362;SDS011;16349;53.672;10.014;2024-01-07T02:59:03;1.00;;;1.00;;
29362;SDS011;16349;53.672;10.014;2024-01-07T03:01:29;4.30;;;1.30;;
29362;SDS011;16349;53.672;10.014;2024-01-07T03:03:56;1.07;;;0.90;;
29362;SDS011;16349;53.672;10.014;2024-01-07T03:06:26;1.70;;;1.20;;
29362;SDS011;16349;53.672;10.014;2024-01-07T03:08:53;2.60;;;1.23;;
29362;SDS011;16349;53.672;10.014;2024-01-07T03:11:20;4.10;;;1.10;;
29362;SDS011;16349;53.672;10.014;2024-01-07T03:13:47;1.20;;;1.10;;
29362;SDS011;16349;53.672;10.014;2024-01-07T03:16:20;2.77;;;1.00;;
29362;SDS011;16349;53.672;10.014;2024-01-07T03:18:47;1.10;;;0.90;;
29362;SDS011;16349;53.672;10.014;2024-01-07T03:21:17;0.97;;;0.70;;
29362;SDS011;16349;53.672;10.014;2024-01-07T03:23:44;1.03;;;0.90;;
29362;SDS011;16349;53.672;10.014;2024-01-07T03:26:11;1.10;;;0.80;;
29362;SDS011;16349;53.672;10.014;2024-01-07T03:28:39;1.60;;;1.10;;
29362;SDS011;16349;53.672;10.014;2024-01-07T03:31:07;4.83;;;0.70;;
29362;SDS011;16349;53.672;10.014;2024-01-07T03:33:37;0.70;;;0.60;;
29362;SDS011;16349;53.672;10.014;2024-01-07T03:36:06;1.47;;;0.70;;
29362;SDS011;16349;53.672;10.014;2024-01-07T03:38:34;0.73;;;0.73;;
29362;SDS011;16349;53.672;10.014;2024-01-07T03:41:01;2.10;;;0.80;;
29362;SDS011;16349;53.672;10.014;2024-01-07T03:43:28;2.77;;;0.77;;
29362;SDS011;16349;53.672;10.014;2024-01-07T03:45:55;2.10;;;0.70;;
29362;SDS011;16349;53.672;10.014;2024-01-07T03:48:22;1.20;;;0.60;;
29362;SDS011;16349;53.672;10.014;2024-01-07T03:50:50;0.80;;;0.80;;
29362;SDS011;16349;53.672;10.014;2024-01-07T03:53:17;1.90;;;0.60;;
29362;SDS011;16349;53.672;10.014;2024-01-07T03:55:44;3.33;;;1.10;;
29362;SDS011;16349;53.672;10.014;2024-01-07T03:58:11;1.17;;;0.77;;
29362;SDS011;16349;53.672;10.014;2024-01-07T04:00:38;1.30;;;0.73;;
29362;SDS011;16349;53.672;10.014;2024-01-07T04:03:05;0.73;;;0.63;;
29362;SDS011;16349;53.672;10.014;2024-01-07T04:05:31;1.03;;;0.70;;
29362;SDS011;16349;53.672;10.014;2024-01-07T04:08:00;1.67;;;0.80;;
29362;SDS011;16349;53.672;10.014;2024-01-07T04:10:27;0.70;;;0.70;;
29362;SDS011;16349;53.672;10.014;2024-01-07T04:12:54;5.20;;;0.90;;
29362;SDS011;16349;53.672;10.014;2024-01-07T04:15:21;1.03;;;0.90;;
29362;SDS011;16349;53.672;10.014;2024-01-07T04:17:48;1.30;;;1.03;;
29362;SDS011;16349;53.672;10.014;2024-01-07T04:20:15;0.90;;;0.73;;
29362;SDS011;16349;53.672;10.014;2024-01-07T04:22:42;0.97;;;0.83;;
29362;SDS011;16349;53.672;10.014;2024-01-07T04:25:10;0.93;;;0.93;;
29362;SDS011;16349;53.672;10.014;2024-01-07T04:27:36;1.60;;;0.80;;
29362;SDS011;16349;53.672;10.014;2024-01-07T04:30:04;1.63;;;0.90;;
29362;SDS011;16349;53.672;10.014;2024-01-07T04:32:32;2.13;;;0.80;;
29362;SDS011;16349;53.672;10.014;2024-01-07T04:34:59;1.07;;;0.73;;
29362;SDS011;16349;53.672;10.014;2024-01-07T04:37:25;4.70;;;1.00;;
29362;SDS011;16349;53.672;10.014;2024-01-07T04:39:52;1.33;;;0.80;;
29362;SDS011;16349;53.672;10.014;2024-01-07T04:42:21;1.03;;;0.93;;
29362;SDS011;16349;53.672;10.014;2024-01-07T04:44:47;2.40;;;1.20;;
29362;SDS011;16349;53.672;10.014;2024-01-07T04:47:24;1.10;;;0.87;;
29362;SDS011;16349;53.672;10.014;2024-01-07T04:49:52;2.47;;;1.00;;
29362;SDS011;16349;53.672;10.014;2024-01-07T04:52:19;1.20;;;0.90;;
29362;SDS011;16349;53.672;10.014;2024-01-07T04:54:47;1.07;;;0.73;;
29362;SDS011;16349;53.672;10.014;2024-01-07T04:57:14;2.83;;;0.83;;
29362;SDS011;16349;53.672;10.014;2024-01-07T04:59:42;1.13;;;0.90;;
29362;SDS011;16349;53.672;10.014;2024-01-07T05:02:10;1.60;;;0.93;;
29362;SDS011;16349;53.672;10.014;2024-01-07T05:04:37;1.33;;;1.03;;
29362;SDS011;16349;53.672;10.014;2024-01-07T05:07:04;1.40;;;1.07;;
29362;SDS011;16349;53.672;10.014;2024-01-07T05:09:31;2.40;;;0.97;;
29362;SDS011;16349;53.672;10.014;2024-01-07T05:11:59;1.53;;;0.90;;
29362;SDS011;16349;53.672;10.014;2024-01-07T05:14:26;2.30;;;1.00;;
29362;SDS011;16349;53.672;10.014;2024-01-07T05:16:54;2.37;;;0.93;;
29362;SDS011;16349;53.672;10.014;2024-01-07T05:19:21;1.50;;;1.10;;
29362;SDS011;16349;53.672;10.014;2024-01-07T05:21:48;2.27;;;1.00;;
29362;SDS011;16349;53.672;10.014;2024-01-07T05:24:15;2.57;;;0.80;;
29362;SDS011;16349;53.672;10.014;2024-01-07T05:26:42;1.27;;;0.80;;
29362;SDS011;16349;53.672;10.014;2024-01-07T05:29:10;2.13;;;0.93;;
29362;SDS011;16349;53.672;10.014;2024-01-07T05:31:37;1.40;;;0.90;;
29362;SDS011;16349;53.672;10.014;2024-01-07T05:34:05;1.53;;;0.67;;
29362;SDS011;16349;53.672;10.014;2024-01-07T05:36:32;1.57;;;0.90;;
29362;SDS011;16349;53.672;10.014;2024-01-07T05:38:59;2.77;;;1.10;;
29362;SDS011;16349;53.672;10.014;2024-01-07T05:41:26;2.27;;;1.00;;
29362;SDS011;16349;53.672;10.014;2024-01-07T05:43:53;2.17;;;0.80;;
29362;SDS011;16349;53.672;10.014;2024-01-07T05:46:20;1.10;;;1.00;;
29362;SDS011;16349;53.672;10.014;2024-01-07T05:48:47;3.70;;;0.87;;
29362;SDS011;16349;53.672;10.014;2024-01-07T05:51:16;1.40;;;1.10;;
29362;SDS011;16349;53.672;10.014;2024-01-07T05:53:43;2.47;;;1.17;;
29362;SDS011;16349;53.672;10.014;2024-01-07T05:56:10;1.33;;;0.70;;
29362;SDS011;16349;53.672;10.014;2024-01-07T05:58:37;1.03;;;0.80;;
29362;SDS011;16349;53.672;10.014;2024-01-07T06:01:04;1.53;;;1.00;;
29362;SDS011;16349;53.672;10.014;2024-01-07T06:03:34;1.43;;;1.20;;
29362;SDS011;16349;53.672;10.014;2024-01-07T06:06:00;3.70;;;1.00;;
29362;SDS011;16349;53.672;10.014;2024-01-07T06:08:29;1.30;;;0.93;;
29362;SDS011;16349;53.672;10.014;2024-01-07T06:10:55;2.67;;;0.90;;
29362;SDS011;16349;53.672;10.014;2024-01-07T06:13:23;3.57;;;1.10;;
29362;SDS011;16349;53.672;10.014;2024-01-07T06:15:49;2.03;;;1.20;;
29362;SDS011;16349;53.672;10.014;2024-01-07T06:18:17;1.53;;;1.10;;
29362;SDS011;16349;53.672;10.014;2024-01-07T06:20:43;2.37;;;1.17;;
29362;SDS011;16349;53.672;10.014;2024-01-07T06:23:10;1.63;;;1.20;;
29362;SDS011;16349;53.672;10.014;2024-01-07T06:25:38;1.60;;;1.17;;
29362;SDS011;16349;53.672;10.014;2024-01-07T06:28:05;5.27;;;1.60;;
29362;SDS011;16349;53.672;10.014;2024-01-07T06:30:34;3.57;;;1.83;;
29362;SDS011;16349;53.672;10.014;2024-01-07T06:33:01;3.03;;;1.13;;
29362;SDS011;16349;53.672;10.014;2024-01-07T06:35:28;3.10;;;1.60;;
29362;SDS011;16349;53.672;10.014;2024-01-07T06:37:55;2.43;;;1.60;;
29362;SDS011;16349;53.672;10.014;2024-01-07T06:40:22;4.03;;;2.20;;
29362;SDS011;16349;53.672;10.014;2024-01-07T06:42:51;2.87;;;2.07;;
29362;SDS011;16349;53.672;10.014;2024-01-07T06:45:18;2.50;;;2.20;;
29362;SDS011;16349;53.672;10.014;2024-01-07T06:47:45;2.77;;;2.10;;
29362;SDS011;16349;53.672;10.014;2024-01-07T06:50:12;2.70;;;2.17;;
29362;SDS011;16349;53.672;10.014;2024-01-07T06:52:39;2.77;;;1.93;;
29362;SDS011;16349;53.672;10.014;2024-01-07T06:55:06;3.90;;;2.30;;
29362;SDS011;16349;53.672;10.014;2024-01-07T06:57:33;7.53;;;2.10;;
29362;SDS011;16349;53.672;10.014;2024-01-07T07:00:01;3.63;;;2.47;;
29362;SDS011;16349;53.672;10.014;2024-01-07T07:02:29;4.00;;;2.17;;
29362;SDS011;16349;53.672;10.014;2024-01-07T07:04:56;6.83;;;2.80;;
29362;SDS011;16349;53.672;10.014;2024-01-07T07:07:22;2.47;;;2.10;;
29362;SDS011;16349;53.672;10.014;2024-01-07T07:09:49;3.10;;;1.90;;
29362;SDS011;16349;53.672;10.014;2024-01-07T07:12:17;3.73;;;3.00;;
29362;SDS011;16349;53.672;10.014;2024-01-07T07:14:44;3.57;;;2.10;;
29362;SDS011;16349;53.672;10.014;2024-01-07T07:17:13;3.87;;;2.60;;
29362;SDS011;16349;53.672;10.014;2024-01-07T07:19:40;6.73;;;2.67;;
29362;SDS011;16349;53.672;10.014;2024-01-07T07:22:07;3.53;;;2.10;;
29362;SDS011;16349;53.672;10.014;2024-01-07T07:24:34;3.07;;;2.13;;
29362;SDS011;16349;53.672;10.014;2024-01-07T07:27:01;5.87;;;2.37;;
29362;SDS011;16349;53.672;10.014;2024-01-07T07:29:28;2.67;;;2.27;;
29362;SDS011;16349;53.672;10.014;2024-01-07T07:31:55;3.90;;;2.30;;
29362;SDS011;16349;53.672;10.014;2024-01-07T07:34:23;3.80;;;2.30;;
29362;SDS011;16349;53.672;10.014;2024-01-07T07:36:50;3.77;;;2.83;;
29362;SDS011;16349;53.672;10.014;2024-01-07T07:39:17;2.90;;;2.13;;
29362;SDS011;16349;53.672;10.014;2024-01-07T07:41:44;2.67;;;2.00;;
29362;SDS011;16349;53.672;10.014;2024-01-07T07:44:10;3.20;;;2.10;;
29362;SDS011;16349;53.672;10.014;2024-01-07T07:46:37;2.33;;;2.13;;
29362;SDS011;16349;53.672;10.014;2024-01-07T07:49:04;4.23;;;2.33;;
29362;SDS011;16349;53.672;10.014;2024-01-07T07:51:32;4.10;;;2.30;;
29362;SDS011;16349;53.672;10.014;2024-01-07T07:53:59;5.87;;;2.53;;
29362;SDS011;16349;53.672;10.014;2024-01-07T07:56:26;2.47;;;2.20;;
29362;SDS011;16349;53.672;10.014;2024-01-07T07:58:54;4.33;;;2.70;;
29362;SDS011;16349;53.672;10.014;2024-01-07T08:01:20;3.50;;;2.67;;
29362;SDS011;16349;53.672;10.014;2024-01-07T08:03:48;2.03;;;1.83;;
29362;SDS011;16349;53.672;10.014;2024-01-07T08:06:14;2.57;;;2.13;;
29362;SDS011;16349;53.672;10.014;2024-01-07T08:08:42;3.57;;;2.13;;
29362;SDS011;16349;53.672;10.014;2024-01-07T08:11:10;2.80;;;2.10;;
29362;SDS011;16349;53.672;10.014;2024-01-07T08:13:37;5.93;;;2.20;;
29362;SDS011;16349;53.672;10.014;2024-01-07T08:16:04;3.10;;;2.60;;
29362;SDS011;16349;53.672;10.014;2024-01-07T08:18:32;3.27;;;1.87;;
29362;SDS011;16349;53.672;10.014;2024-01-07T08:20:59;2.20;;;2.00;;
29362;SDS011;16349;53.672;10.014;2024-01-07T08:23:25;2.83;;;2.10;;
29362;SDS011;16349;53.672;10.014;2024-01-07T08:25:54;3.03;;;2.27;;
29362;SDS011;16349;53.672;10.014;2024-01-07T08:28:20;2.70;;;2.50;;
29362;SDS011;16349;53.672;10.014;2024-01-07T08:30:48;3.00;;;1.87;;
29362;SDS011;16349;53.672;10.014;2024-01-07T08:33:16;3.70;;;1.97;;
29362;SDS011;16349;53.672;10.014;2024-01-07T08:35:44;5.60;;;2.03;;
29362;SDS011;16349;53.672;10.014;2024-01-07T08:38:10;2.97;;;2.10;;
29362;SDS011;16349;53.672;10.014;2024-01-07T08:40:37;2.77;;;1.80;;
29362;SDS011;16349;53.672;10.014;2024-01-07T08:43:06;3.97;;;2.00;;
29362;SDS011;16349;53.672;10.014;2024-01-07T08:45:33;4.10;;;2.17;;
29362;SDS011;16349;53.672;10.014;2024-01-07T08:48:00;2.50;;;2.10;;
29362;SDS011;16349;53.672;10.014;2024-01-07T08:50:27;6.23;;;2.60;;
29362;SDS011;16349;53.672;10.014;2024-01-07T08:52:55;4.70;;;2.53;;
29362;SDS011;16349;53.672;10.014;2024-01-07T08:55:22;2.47;;;2.00;;
29362;SDS011;16349;53.672;10.014;2024-01-07T08:57:48;2.60;;;1.90;;
29362;SDS011;16349;53.672;10.014;2024-01-07T09:00:19;2.43;;;1.90;;
29362;SDS011;16349;53.672;10.014;2024-01-07T09:02:50;3.50;;;2.07;;
29362;SDS011;16349;53.672;10.014;2024-01-07T09:05:17;3.60;;;2.13;;
29362;SDS011;16349;53.672;10.014;2024-01-07T09:07:44;2.63;;;2.43;;
29362;SDS011;16349;53.672;10.014;2024-01-07T09:10:11;2.03;;;1.83;;
29362;SDS011;16349;53.672;10.014;2024-01-07T09:12:38;2.07;;;1.80;;
29362;SDS011;16349;53.672;10.014;2024-01-07T09:15:05;3.20;;;2.50;;
29362;SDS011;16349;53.672;10.014;2024-01-07T09:17:36;1.80;;;1.63;;
29362;SDS011;16349;53.672;10.014;2024-01-07T09:20:03;2.97;;;2.00;;
29362;SDS011;16349;53.672;10.014;2024-01-07T09:22:32;2.60;;;2.13;;
29362;SDS011;16349;53.672;10.014;2024-01-07T09:25:00;2.07;;;1.90;;
29362;SDS011;16349;53.672;10.014;2024-01-07T09:27:28;3.00;;;1.97;;
29362;SDS011;16349;53.672;10.014;2024-01-07T09:29:55;3.10;;;2.00;;
29362;SDS011;16349;53.672;10.014;2024-01-07T09:32:22;2.47;;;2.27;;
29362;SDS011;16349;53.672;10.014;2024-01-07T09:34:50;3.30;;;2.10;;
29362;SDS011;16349;53.672;10.014;2024-01-07T09:37:18;2.67;;;1.97;;
29362;SDS011;16349;53.672;10.014;2024-01-07T09:39:45;3.17;;;1.87;;
29362;SDS011;16349;53.672;10.014;2024-01-07T09:42:13;5.20;;;2.50;;
29362;SDS011;16349;53.672;10.014;2024-01-07T09:44:41;3.47;;;2.30;;
29362;SDS011;16349;53.672;10.014;2024-01-07T09:47:10;2.53;;;1.90;;
29362;SDS011;16349;53.672;10.014;2024-01-07T09:49:37;2.73;;;1.93;;
29362;SDS011;16349;53.672;10.014;2024-01-07T09:52:06;3.33;;;1.53;;
29362;SDS011;16349;53.672;10.014;2024-01-07T09:54:34;2.87;;;2.23;;
29362;SDS011;16349;53.672;10.014;2024-01-07T09:57:03;2.10;;;1.80;;
29362;SDS011;16349;53.672;10.014;2024-01-07T09:59:32;1.50;;;1.40;;
29362;SDS011;16349;53.672;10.014;2024-01-07T10:01:59;3.40;;;2.13;;
29362;SDS011;16349;53.672;10.014;2024-01-07T10:04:27;2.63;;;1.83;;
29362;SDS011;16349;53.672;10.014;2024-01-07T10:06:54;3.33;;;1.70;;
29362;SDS011;16349;53.672;10.014;2024-01-07T10:09:23;2.80;;;1.90;;
29362;SDS011;16349;53.672;10.014;2024-01-07T10:11:51;2.93;;;1.63;;
29362;SDS011;16349;53.672;10.014;2024-01-07T10:14:18;1.70;;;1.60;;
29362;SDS011;16349;53.672;10.014;2024-01-07T10:16:47;1.70;;;1.60;;
29362;SDS011;16349;53.672;10.014;2024-01-07T10:19:17;3.70;;;2.00;;
29362;SDS011;16349;53.672;10.014;2024-01-07T10:21:58;3.93;;;2.20;;
29362;SDS011;16349;53.672;10.014;2024-01-07T10:24:27;2.60;;;2.13;;
29362;SDS011;16349;53.672;10.014;2024-01-07T10:27:03;3.47;;;2.30;;
29362;SDS011;16349;53.672;10.014;2024-01-07T10:29:30;2.13;;;1.93;;
29362;SDS011;16349;53.672;10.014;2024-01-07T10:31:57;2.50;;;1.70;;
29362;SDS011;16349;53.672;10.014;2024-01-07T10:34:28;2.30;;;2.10;;
29362;SDS011;16349;53.672;10.014;2024-01-07T10:36:57;1.77;;;1.67;;
29362;SDS011;16349;53.672;10.014;2024-01-07T10:39:27;3.40;;;2.10;;
29362;SDS011;16349;53.672;10.014;2024-01-07T10:41:54;2.83;;;1.80;;
29362;SDS011;16349;53.672;10.014;2024-01-07T10:44:25;2.77;;;1.90;;
29362;SDS011;16349;53.672;10.014;2024-01-07T10:46:53;2.37;;;2.07;;
29362;SDS011;16349;53.672;10.014;2024-01-07T10:49:21;3.57;;;2.00;;
29362;SDS011;16349;53.672;10.014;2024-01-07T10:51:51;2.10;;;1.77;;
29362;SDS011;16349;53.672;10.014;2024-01-07T10:54:31;2.20;;;2.00;;
29362;SDS011;16349;53.672;10.014;2024-01-07T10:57:00;2.77;;;2.13;;
29362;SDS011;16349;53.672;10.014;2024-01-07T10:59:33;4.40;;;2.50;;
29362;SDS011;16349;53.672;10.014;2024-01-07T11:02:02;1.90;;;1.80;;
29362;SDS011;16349;53.672;10.014;2024-01-07T11:04:31;3.33;;;1.80;;
29362;SDS011;16349;53.672;10.014;2024-01-07T11:07:09;2.10;;;1.90;;
29362;SDS011;16349;53.672;10.014;2024-01-07T11:09:47;2.57;;;1.93;;
29362;SDS011;16349;53.672;10.014;2024-01-07T11:12:22;2.43;;;2.13;;
29362;SDS011;16349;53.672;10.014;2024-01-07T11:14:49;2.73;;;2.03;;
29362;SDS011;16349;53.672;10.014;2024-01-07T11:20:07;5.73;;;2.40;;
29362;SDS011;16349;53.672;10.014;2024-01-07T11:22:40;3.87;;;2.37;;
29362;SDS011;16349;53.672;10.014;2024-01-07T11:27:57;2.73;;;2.00;;
29362;SDS011;16349;53.672;10.014;2024-01-07T11:30:24;2.87;;;2.30;;
29362;SDS011;16349;53.672;10.014;2024-01-07T11:32:56;4.37;;;2.17;;
29362;SDS011;16349;53.672;10.014;2024-01-07T11:38:21;7.03;;;1.97;;
29362;SDS011;16349;53.672;10.014;2024-01-07T11:40:50;3.50;;;2.33;;
29362;SDS011;16349;53.672;10.014;2024-01-07T11:43:17;2.37;;;1.77;;
29362;SDS011;16349;53.672;10.014;2024-01-07T11:45:44;3.03;;;2.73;;
29362;SDS011;16349;53.672;10.014;2024-01-07T11:48:12;2.00;;;1.83;;
29362;SDS011;16349;53.672;10.014;2024-01-07T11:50:39;2.67;;;2.07;;
29362;SDS011;16349;53.672;10.014;2024-01-07T11:53:06;2.63;;;2.30;;
29362;SDS011;16349;53.672;10.014;2024-01-07T11:55:33;1.90;;;1.70;;
29362;SDS011;16349;53.672;10.014;2024-01-07T11:58:03;1.87;;;1.70;;
29362;SDS011;16349;53.672;10.014;2024-01-07T12:00:33;3.80;;;1.80;;
29362;SDS011;16349;53.672;10.014;2024-01-07T12:03:00;3.77;;;1.70;;
29362;SDS011;16349;53.672;10.014;2024-01-07T12:05:27;2.97;;;2.50;;
29362;SDS011;16349;53.672;10.014;2024-01-07T12:07:54;2.77;;;1.70;;
29362;SDS011;16349;53.672;10.014;2024-01-07T12:10:22;2.73;;;2.10;;
29362;SDS011;16349;53.672;10.014;2024-01-07T12:12:49;2.80;;;2.07;;
29362;SDS011;16349;53.672;10.014;2024-01-07T12:15:18;1.60;;;1.50;;
29362;SDS011;16349;53.672;10.014;2024-01-07T12:17:56;2.50;;;1.60;;
29362;SDS011;16349;53.672;10.014;2024-01-07T12:20:25;2.93;;;2.03;;
29362;SDS011;16349;53.672;10.014;2024-01-07T12:22:55;2.47;;;1.07;;
29362;SDS011;16349;53.672;10.014;2024-01-07T12:25:22;6.10;;;1.20;;
29362;SDS011;16349;53.672;10.014;2024-01-07T12:27:51;3.30;;;1.60;;
29362;SDS011;16349;53.672;10.014;2024-01-07T12:30:20;2.77;;;1.60;;
29362;SDS011;16349;53.672;10.014;2024-01-07T12:32:47;1.30;;;1.20;;
29362;SDS011;16349;53.672;10.014;2024-01-07T12:35:17;1.60;;;1.33;;
29362;SDS011;16349;53.672;10.014;2024-01-07T12:37:44;1.70;;;1.00;;
29362;SDS011;16349;53.672;10.014;2024-01-07T12:40:11;2.20;;;1.40;;
29362;SDS011;16349;53.672;10.014;2024-01-07T12:42:38;3.60;;;1.97;;
29362;SDS011;16349;53.672;10.014;2024-01-07T12:45:10;1.50;;;1.40;;
29362;SDS011;16349;53.672;10.014;2024-01-07T12:47:40;2.97;;;1.37;;
29362;SDS011;16349;53.672;10.014;2024-01-07T12:50:07;1.50;;;1.30;;
29362;SDS011;16349;53.672;10.014;2024-01-07T12:52:35;3.07;;;1.30;;
29362;SDS011;16349;53.672;10.014;2024-01-07T12:55:03;1.60;;;1.30;;
29362;SDS011;16349;53.672;10.014;2024-01-07T12:57:30;1.27;;;1.17;;
29362;SDS011;16349;53.672;10.014;2024-01-07T12:59:57;1.33;;;1.20;;
29362;SDS011;16349;53.672;10.014;2024-01-07T13:02:24;1.93;;;1.37;;
29362;SDS011;16349;53.672;10.014;2024-01-07T13:04:52;1.53;;;1.10;;
29362;SDS011;16349;53.672;10.014;2024-01-07T13:07:20;1.67;;;1.37;;
29362;SDS011;16349;53.672;10.014;2024-01-07T13:09:48;1.00;;;0.90;;
29362;SDS011;16349;53.672;10.014;2024-01-07T13:12:15;0.80;;;0.80;;
29362;SDS011;16349;53.672;10.014;2024-01-07T13:14:42;1.50;;;1.10;;
29362;SDS011;16349;53.672;10.014;2024-01-07T13:17:08;3.43;;;1.17;;
29362;SDS011;16349;53.672;10.014;2024-01-07T13:19:35;0.90;;;0.90;;
29362;SDS011;16349;53.672;10.014;2024-01-07T13:22:04;1.17;;;0.97;;
29362;SDS011;16349;53.672;10.014;2024-01-07T13:24:31;1.00;;;0.90;;
29362;SDS011;16349;53.672;10.014;2024-01-07T13:26:58;1.40;;;0.83;;
29362;SDS011;16349;53.672;10.014;2024-01-07T13:29:25;3.20;;;1.10;;
29362;SDS011;16349;53.672;10.014;2024-01-07T13:31:52;0.70;;;0.63;;
29362;SDS011;16349;53.672;10.014;2024-01-07T13:34:18;1.53;;;1.30;;
29362;SDS011;16349;53.672;10.014;2024-01-07T13:36:45;1.20;;;0.83;;
29362;SDS011;16349;53.672;10.014;2024-01-07T13:39:13;1.83;;;1.17;;
29362;SDS011;16349;53.672;10.014;2024-01-07T13:41:41;1.20;;;1.10;;
29362;SDS011;16349;53.672;10.014;2024-01-07T13:44:09;3.07;;;1.10;;
29362;SDS011;16349;53.672;10.014;2024-01-07T13:46:43;0.90;;;0.90;;
29362;SDS011;16349;53.672;10.014;2024-01-07T13:49:10;1.80;;;1.10;;
29362;SDS011;16349;53.672;10.014;2024-01-07T13:51:37;1.43;;;1.33;;
29362;SDS011;16349;53.672;10.014;2024-01-07T13:54:04;1.13;;;1.03;;
29362;SDS011;16349;53.672;10.014;2024-01-07T13:56:33;4.70;;;1.03;;
29362;SDS011;16349;53.672;10.014;2024-01-07T13:59:02;1.13;;;0.93;;
29362;SDS011;16349;53.672;10.014;2024-01-07T14:01:29;1.83;;;1.33;;
29362;SDS011;16349;53.672;10.014;2024-01-07T14:03:57;1.40;;;1.20;;
29362;SDS011;16349;53.672;10.014;2024-01-07T14:06:24;1.90;;;1.10;;
29362;SDS011;16349;53.672;10.014;2024-01-07T14:08:51;1.67;;;1.20;;
29362;SDS011;16349;53.672;10.014;2024-01-07T14:11:18;1.73;;;1.30;;
29362;SDS011;16349;53.672;10.014;2024-01-07T14:13:47;1.63;;;1.07;;
29362;SDS011;16349;53.672;10.014;2024-01-07T14:16:14;2.17;;;1.53;;
29362;SDS011;16349;53.672;10.014;2024-01-07T14:18:41;2.50;;;1.43;;
29362;SDS011;16349;53.672;10.014;2024-01-07T14:21:08;1.10;;;0.90;;
29362;SDS011;16349;53.672;10.014;2024-01-07T14:23:35;2.27;;;1.40;;
29362;SDS011;16349;53.672;10.014;2024-01-07T14:26:02;1.47;;;1.37;;
29362;SDS011;16349;53.672;10.014;2024-01-07T14:28:29;1.50;;;0.90;;
29362;SDS011;16349;53.672;10.014;2024-01-07T14:30:58;1.57;;;1.37;;
29362;SDS011;16349;53.672;10.014;2024-01-07T14:33:25;1.20;;;1.10;;
29362;SDS011;16349;53.672;10.014;2024-01-07T14:35:52;1.00;;;0.90;;
29362;SDS011;16349;53.672;10.014;2024-01-07T14:38:19;1.33;;;1.17;;
29362;SDS011;16349;53.672;10.014;2024-01-07T14:40:46;3.33;;;1.13;;
29362;SDS011;16349;53.672;10.014;2024-01-07T14:43:16;1.00;;;1.00;;
29362;SDS011;16349;53.672;10.014;2024-01-07T14:45:43;1.00;;;1.00;;